Dean Reinauer — WDG7107 — position and weather

sailwx.info

Track history (hours):
 
Tides and Currents Weather Stations Pressure Air Temp Water Temp Dewpoint Dewpoint Depression Visibility Wind Speed Wind Dir Waves Ship Positions

Dean Reinauer

Owner: REINAUER TRANSPORTATION CO.,LLC., STATEN ISLAND, NY. More information available from US FCC via Universal Licensing System and Coast Guard Vessel Documentation Center.

Last reported at 2018-Jan-23 03:27 UTC. Time now 2018-Jan-23 03:59 UTC.
Position N 40°39' W 074°07'.

Length 152 m; draft 6.7 m.

Type: . MMSI: 367563930.

Date/timePositionNaut miles runAvg speedWind from/ knotsBaromVisibWave heightAir tempDewpointWater temp
2018-Jan-23 03:27N 40°39' W 074°07'0 0.0
2018-Jan-23 03:00N 40°39' W 074°07'0 0.0
2018-Jan-23 02:30N 40°39' W 074°07'0 0.0
2018-Jan-23 02:00N 40°39' W 074°07'0 0.0
2018-Jan-23 01:30N 40°39' W 074°07'0 0.0
2018-Jan-23 00:57N 40°39' W 074°07'0 0.0
2018-Jan-23 00:24N 40°39' W 074°07'0 0.0
2018-Jan-23 00:00N 40°39' W 074°07'0 0.2
2018-Jan-22 23:30N 40°39' W 074°07'0 0.0
2018-Jan-22 22:59N 40°39' W 074°07'0 0.7
2018-Jan-22 22:29N 40°39' W 074°06'3 5.6
2018-Jan-22 22:00N 40°40' W 074°03'0 0.1
2018-Jan-22 21:29N 40°40' W 074°03'0 0.0
2018-Jan-22 20:59N 40°40' W 074°03'0 0.0
2018-Jan-22 20:26N 40°40' W 074°03'0 0.0
2018-Jan-22 19:58N 40°40' W 074°03'0 0.0
2018-Jan-22 19:29N 40°40' W 074°03'0 0.0
2018-Jan-22 18:55N 40°40' W 074°03'0 0.3
2018-Jan-22 18:29N 40°40' W 074°03'0 0.2
2018-Jan-22 17:59N 40°40' W 074°03'0 0.0
2018-Jan-22 17:28N 40°40' W 074°03'0 0.1
2018-Jan-22 16:58N 40°40' W 074°03'0 0.0
2018-Jan-22 16:29N 40°40' W 074°03'0 0.0
2018-Jan-22 15:56N 40°40' W 074°03'0 0.1
2018-Jan-22 15:25N 40°40' W 074°03'0 0.3
2018-Jan-22 14:59N 40°40' W 074°03'0 0.2
2018-Jan-22 14:29N 40°40' W 074°03'0 0.0
2018-Jan-22 13:58N 40°40' W 074°03'0 0.1
2018-Jan-22 13:28N 40°40' W 074°03'0 0.1
2018-Jan-22 12:58N 40°40' W 074°03'0 0.1
2018-Jan-22 12:28N 40°40' W 074°03'0 0.1
2018-Jan-22 11:58N 40°40' W 074°03'0 0.0
2018-Jan-22 11:28N 40°40' W 074°03'0 0.0
2018-Jan-22 10:58N 40°40' W 074°03'0 0.0
2018-Jan-22 10:28N 40°40' W 074°03'0 0.0
2018-Jan-22 10:00N 40°40' W 074°03'3 5.6
2018-Jan-22 09:30N 40°42' W 074°00'611.6
2018-Jan-22 08:59N 40°47' W 073°56'510.6
2018-Jan-22 08:30N 40°48' W 073°50'5 8.8
2018-Jan-22 07:57N 40°52' W 073°45'4410.4
2018-Jan-22 03:40N 41°06' W 072°49'210.8
2018-Jan-22 03:30N 41°06' W 072°47'510.5
2018-Jan-22 03:00N 41°07' W 072°40'510.8
2018-Jan-22 02:30N 41°08' W 072°33'510.8
2018-Jan-22 02:00N 41°10' W 072°26'510.4
2018-Jan-22 01:30N 41°12' W 072°20'5 9.4
2018-Jan-22 01:00N 41°13' W 072°14'5 9.1
2018-Jan-22 00:25N 41°14' W 072°07'93 8.2
2018-Jan-21 13:05N 42°09' W 070°26'1 9.9
2018-Jan-21 12:59N 42°10' W 070°26'5 9.9
2018-Jan-21 12:30N 42°14' W 070°24'5 9.8
2018-Jan-21 12:00N 42°19' W 070°23'5 9.8
2018-Jan-21 11:30N 42°24' W 070°21'510.1
2018-Jan-21 11:00N 42°29' W 070°20'510.2
2018-Jan-21 10:30N 42°34' W 070°19'510.1
2018-Jan-21 10:00N 42°39' W 070°18'510.0
2018-Jan-21 09:30N 42°43' W 070°17'510.0
2018-Jan-21 09:01N 42°48' W 070°16'510.0
2018-Jan-21 08:31N 42°53' W 070°16'12 0.5
2018-Jan-20 07:33N 43°04' W 070°22'1 9.6
2018-Jan-20 07:29N 43°03' W 070°22'5 9.5
2018-Jan-20 07:00N 42°59' W 070°25'5 9.7
2018-Jan-20 06:30N 42°55' W 070°27'5 9.7
2018-Jan-20 06:00N 42°50' W 070°30'5 9.3
2018-Jan-20 05:31N 42°46' W 070°30'5 9.5
2018-Jan-20 05:00N 42°41' W 070°29'4 8.3
2018-Jan-20 04:30N 42°37' W 070°31'5 9.7
2018-Jan-20 04:00N 42°34' W 070°36'5 9.7
2018-Jan-20 03:31N 42°30' W 070°41'5 9.7
2018-Jan-20 03:00N 42°27' W 070°46'5 9.4
2018-Jan-20 02:30N 42°24' W 070°50'4 9.1
2018-Jan-20 02:01N 42°22' W 070°55'4 7.5
2018-Jan-20 01:30N 42°20' W 071°00'3 6.6
2018-Jan-20 01:01N 42°23' W 071°03'1 2.9
2018-Jan-20 00:30N 42°24' W 071°01'0 0.0
2018-Jan-19 21:54N 42°24' W 071°01'2 0.9
2018-Jan-19 20:04N 42°23' W 071°03'0 0.0
2018-Jan-19 19:58N 42°23' W 071°03'0 0.0
2018-Jan-19 19:13N 42°23' W 071°03'0 0.0
2018-Jan-19 18:52N 42°23' W 071°03'0 0.0
2018-Jan-19 18:28N 42°23' W 071°03'0 0.0
2018-Jan-19 17:22N 42°23' W 071°03'0 1.0
2018-Jan-19 17:00N 42°23' W 071°02'1 0.2
2018-Jan-19 10:44N 42°24' W 071°01'0 0.0
2018-Jan-19 10:29N 42°24' W 071°01'1 2.6
2018-Jan-19 09:59N 42°23' W 071°02'2 3.9
2018-Jan-19 09:30N 42°21' W 071°02'3 5.3
2018-Jan-19 09:00N 42°20' W 070°59'3 6.0
2018-Jan-19 08:30N 42°22' W 070°56'4 7.9
2018-Jan-19 08:00N 42°23' W 070°50'4 8.9
2018-Jan-19 07:30N 42°20' W 070°46'5 8.9
2018-Jan-19 07:00N 42°17' W 070°41'4 8.9
2018-Jan-19 06:30N 42°14' W 070°37'5 8.9
2018-Jan-19 05:58N 42°10' W 070°33'91 7.7
2018-Jan-18 18:08N 41°14' W 072°08'110.5
2018-Jan-18 18:00N 41°13' W 072°10'510.4
2018-Jan-18 17:30N 41°12' W 072°16'5 9.5
2018-Jan-18 17:00N 41°11' W 072°22'4 8.9
2018-Jan-18 16:30N 41°09' W 072°28'4 8.2
2018-Jan-18 16:00N 41°08' W 072°33'4 8.6
2018-Jan-18 15:30N 41°07' W 072°39'63 8.3
2018-Jan-18 07:54N 40°46' W 073°57'2 5.8
2018-Jan-18 07:31N 40°44' W 073°58'3 5.5
2018-Jan-18 07:01N 40°42' W 074°00'4 7.2
2018-Jan-18 06:30N 40°39' W 074°04'4 7.7
2018-Jan-18 06:00N 40°38' W 074°09'3 6.4
2018-Jan-18 05:31N 40°37' W 074°12'3 6.5
2018-Jan-18 04:58N 40°33' W 074°13'2 0.8
2018-Jan-18 02:20N 40°32' W 074°15'0 0.0
2018-Jan-18 01:32N 40°32' W 074°15'0 0.0
2018-Jan-18 01:20N 40°32' W 074°15'0 0.0
2018-Jan-18 00:32N 40°32' W 074°15'0 0.0
2018-Jan-17 23:56N 40°32' W 074°15'  
Track history (hours):
 
Tides and Currents Weather Stations Pressure Air Temp Water Temp Dewpoint Dewpoint Depression Visibility Wind Speed Wind Dir Waves Ship Positions

Dean Reinauer

Owner: REINAUER TRANSPORTATION CO.,LLC., STATEN ISLAND, NY. More information available from US FCC via Universal Licensing System and Coast Guard Vessel Documentation Center.

Last reported at 2018-Jan-23 03:27 UTC. Time now 2018-Jan-23 03:59 UTC.
Position N 40°39' W 074°07'.

Length 152 m; draft 6.7 m.

Type: . MMSI: 367563930.

Date/timePositionNaut miles runAvg speedWind from/ knotsBaromVisibWave heightAir tempDewpointWater temp
2018-Jan-23 03:27N 40°39' W 074°07'0 0.0
2018-Jan-23 03:00N 40°39' W 074°07'0 0.0
2018-Jan-23 02:30N 40°39' W 074°07'0 0.0
2018-Jan-23 02:00N 40°39' W 074°07'0 0.0
2018-Jan-23 01:30N 40°39' W 074°07'0 0.0
2018-Jan-23 00:57N 40°39' W 074°07'0 0.0
2018-Jan-23 00:24N 40°39' W 074°07'0 0.0
2018-Jan-23 00:00N 40°39' W 074°07'0 0.2
2018-Jan-22 23:30N 40°39' W 074°07'0 0.0
2018-Jan-22 22:59N 40°39' W 074°07'0 0.7
2018-Jan-22 22:29N 40°39' W 074°06'3 5.6
2018-Jan-22 22:00N 40°40' W 074°03'0 0.1
2018-Jan-22 21:29N 40°40' W 074°03'0 0.0
2018-Jan-22 20:59N 40°40' W 074°03'0 0.0
2018-Jan-22 20:26N 40°40' W 074°03'0 0.0
2018-Jan-22 19:58N 40°40' W 074°03'0 0.0
2018-Jan-22 19:29N 40°40' W 074°03'0 0.0
2018-Jan-22 18:55N 40°40' W 074°03'0 0.3
2018-Jan-22 18:29N 40°40' W 074°03'0 0.2
2018-Jan-22 17:59N 40°40' W 074°03'0 0.0
2018-Jan-22 17:28N 40°40' W 074°03'0 0.1
2018-Jan-22 16:58N 40°40' W 074°03'0 0.0
2018-Jan-22 16:29N 40°40' W 074°03'0 0.0
2018-Jan-22 15:56N 40°40' W 074°03'0 0.1
2018-Jan-22 15:25N 40°40' W 074°03'0 0.3
2018-Jan-22 14:59N 40°40' W 074°03'0 0.2
2018-Jan-22 14:29N 40°40' W 074°03'0 0.0
2018-Jan-22 13:58N 40°40' W 074°03'0 0.1
2018-Jan-22 13:28N 40°40' W 074°03'0 0.1
2018-Jan-22 12:58N 40°40' W 074°03'0 0.1
2018-Jan-22 12:28N 40°40' W 074°03'0 0.1
2018-Jan-22 11:58N 40°40' W 074°03'0 0.0
2018-Jan-22 11:28N 40°40' W 074°03'0 0.0
2018-Jan-22 10:58N 40°40' W 074°03'0 0.0
2018-Jan-22 10:28N 40°40' W 074°03'0 0.0
2018-Jan-22 10:00N 40°40' W 074°03'3 5.6
2018-Jan-22 09:30N 40°42' W 074°00'611.6
2018-Jan-22 08:59N 40°47' W 073°56'510.6
2018-Jan-22 08:30N 40°48' W 073°50'5 8.8
2018-Jan-22 07:57N 40°52' W 073°45'4410.4
2018-Jan-22 03:40N 41°06' W 072°49'210.8
2018-Jan-22 03:30N 41°06' W 072°47'510.5
2018-Jan-22 03:00N 41°07' W 072°40'510.8
2018-Jan-22 02:30N 41°08' W 072°33'510.8
2018-Jan-22 02:00N 41°10' W 072°26'510.4
2018-Jan-22 01:30N 41°12' W 072°20'5 9.4
2018-Jan-22 01:00N 41°13' W 072°14'5 9.1
2018-Jan-22 00:25N 41°14' W 072°07'93 8.2
2018-Jan-21 13:05N 42°09' W 070°26'1 9.9
2018-Jan-21 12:59N 42°10' W 070°26'5 9.9
2018-Jan-21 12:30N 42°14' W 070°24'5 9.8
2018-Jan-21 12:00N 42°19' W 070°23'5 9.8
2018-Jan-21 11:30N 42°24' W 070°21'510.1
2018-Jan-21 11:00N 42°29' W 070°20'510.2
2018-Jan-21 10:30N 42°34' W 070°19'510.1
2018-Jan-21 10:00N 42°39' W 070°18'510.0
2018-Jan-21 09:30N 42°43' W 070°17'510.0
2018-Jan-21 09:01N 42°48' W 070°16'510.0
2018-Jan-21 08:31N 42°53' W 070°16'12 0.5
2018-Jan-20 07:33N 43°04' W 070°22'1 9.6
2018-Jan-20 07:29N 43°03' W 070°22'5 9.5
2018-Jan-20 07:00N 42°59' W 070°25'5 9.7
2018-Jan-20 06:30N 42°55' W 070°27'5 9.7
2018-Jan-20 06:00N 42°50' W 070°30'5 9.3
2018-Jan-20 05:31N 42°46' W 070°30'5 9.5
2018-Jan-20 05:00N 42°41' W 070°29'4 8.3
2018-Jan-20 04:30N 42°37' W 070°31'5 9.7
2018-Jan-20 04:00N 42°34' W 070°36'5 9.7
2018-Jan-20 03:31N 42°30' W 070°41'5 9.7
2018-Jan-20 03:00N 42°27' W 070°46'5 9.4
2018-Jan-20 02:30N 42°24' W 070°50'4 9.1
2018-Jan-20 02:01N 42°22' W 070°55'4 7.5
2018-Jan-20 01:30N 42°20' W 071°00'3 6.6
2018-Jan-20 01:01N 42°23' W 071°03'1 2.9
2018-Jan-20 00:30N 42°24' W 071°01'0 0.0
2018-Jan-19 21:54N 42°24' W 071°01'2 0.9
2018-Jan-19 20:04N 42°23' W 071°03'0 0.0
2018-Jan-19 19:58N 42°23' W 071°03'0 0.0
2018-Jan-19 19:13N 42°23' W 071°03'0 0.0
2018-Jan-19 18:52N 42°23' W 071°03'0 0.0
2018-Jan-19 18:28N 42°23' W 071°03'0 0.0
2018-Jan-19 17:22N 42°23' W 071°03'0 1.0
2018-Jan-19 17:00N 42°23' W 071°02'1 0.2
2018-Jan-19 10:44N 42°24' W 071°01'0 0.0
2018-Jan-19 10:29N 42°24' W 071°01'1 2.6
2018-Jan-19 09:59N 42°23' W 071°02'2 3.9
2018-Jan-19 09:30N 42°21' W 071°02'3 5.3
2018-Jan-19 09:00N 42°20' W 070°59'3 6.0
2018-Jan-19 08:30N 42°22' W 070°56'4 7.9
2018-Jan-19 08:00N 42°23' W 070°50'4 8.9
2018-Jan-19 07:30N 42°20' W 070°46'5 8.9
2018-Jan-19 07:00N 42°17' W 070°41'4 8.9
2018-Jan-19 06:30N 42°14' W 070°37'5 8.9
2018-Jan-19 05:58N 42°10' W 070°33'91 7.7
2018-Jan-18 18:08N 41°14' W 072°08'110.5
2018-Jan-18 18:00N 41°13' W 072°10'510.4
2018-Jan-18 17:30N 41°12' W 072°16'5 9.5
2018-Jan-18 17:00N 41°11' W 072°22'4 8.9
2018-Jan-18 16:30N 41°09' W 072°28'4 8.2
2018-Jan-18 16:00N 41°08' W 072°33'4 8.6
2018-Jan-18 15:30N 41°07' W 072°39'63 8.3
2018-Jan-18 07:54N 40°46' W 073°57'2 5.8
2018-Jan-18 07:31N 40°44' W 073°58'3 5.5
2018-Jan-18 07:01N 40°42' W 074°00'4 7.2
2018-Jan-18 06:30N 40°39' W 074°04'4 7.7
2018-Jan-18 06:00N 40°38' W 074°09'3 6.4
2018-Jan-18 05:31N 40°37' W 074°12'3 6.5
2018-Jan-18 04:58N 40°33' W 074°13'2 0.8
2018-Jan-18 02:20N 40°32' W 074°15'0 0.0
2018-Jan-18 01:32N 40°32' W 074°15'0 0.0
2018-Jan-18 01:20N 40°32' W 074°15'0 0.0
2018-Jan-18 00:32N 40°32' W 074°15'0 0.0
2018-Jan-17 23:56N 40°32' W 074°15'  

Dump ship's entire track history